sensor_id;sensor_type;location;lat;lon;timestamp;pressure;altitude;pressure_sealevel;temperature;humidity
60061;BME280;45933;51.336;12.612;2023-04-01T00:01:01;98090.56;;;10.90;67.29
60061;BME280;45933;51.336;12.612;2023-04-01T00:03:27;98096.59;;;10.92;67.24
60061;BME280;45933;51.336;12.612;2023-04-01T00:05:54;98095.91;;;10.87;67.53
60061;BME280;45933;51.336;12.612;2023-04-01T00:08:20;98089.03;;;10.84;67.73
60061;BME280;45933;51.336;12.612;2023-04-01T00:10:45;98093.31;;;10.87;67.78
60061;BME280;45933;51.336;12.612;2023-04-01T00:13:11;98089.47;;;10.95;66.85
60061;BME280;45933;51.336;12.612;2023-04-01T00:15:36;98087.78;;;10.94;67.23
60061;BME280;45933;51.336;12.612;2023-04-01T00:18:01;98084.44;;;10.91;67.32
60061;BME280;45933;51.336;12.612;2023-04-01T00:20:28;98087.03;;;10.91;67.52
60061;BME280;45933;51.336;12.612;2023-04-01T00:22:53;98089.66;;;10.91;67.21
60061;BME280;45933;51.336;12.612;2023-04-01T00:25:18;98087.09;;;10.89;67.69
60061;BME280;45933;51.336;12.612;2023-04-01T00:27:44;98086.94;;;10.94;67.12
60061;BME280;45933;51.336;12.612;2023-04-01T00:30:10;98091.22;;;10.95;67.13
60061;BME280;45933;51.336;12.612;2023-04-01T00:32:35;98087.00;;;10.92;67.54
60061;BME280;45933;51.336;12.612;2023-04-01T00:35:01;98087.97;;;10.90;67.84
60061;BME280;45933;51.336;12.612;2023-04-01T00:37:27;98088.81;;;10.90;67.68
60061;BME280;45933;51.336;12.612;2023-04-01T00:39:53;98090.47;;;10.93;67.66
60061;BME280;45933;51.336;12.612;2023-04-01T00:42:18;98084.31;;;10.94;67.59
60061;BME280;45933;51.336;12.612;2023-04-01T00:44:47;98082.50;;;10.96;67.30
60061;BME280;45933;51.336;12.612;2023-04-01T00:47:15;98086.19;;;10.90;67.84
60061;BME280;45933;51.336;12.612;2023-04-01T00:49:42;98084.41;;;10.92;67.57
60061;BME280;45933;51.336;12.612;2023-04-01T00:52:11;98086.94;;;10.94;67.92
60061;BME280;45933;51.336;12.612;2023-04-01T00:54:38;98083.59;;;10.90;67.63
60061;BME280;45933;51.336;12.612;2023-04-01T00:57:15;98088.63;;;10.95;67.62
60061;BME280;45933;51.336;12.612;2023-04-01T00:59:47;98087.78;;;10.94;67.61
60061;BME280;45933;51.336;12.612;2023-04-01T01:02:13;98090.56;;;10.90;67.77
60061;BME280;45933;51.336;12.612;2023-04-01T01:04:40;98087.97;;;10.90;67.81
60061;BME280;45933;51.336;12.612;2023-04-01T01:10:17;98091.97;;;10.98;67.70
60061;BME280;45933;51.336;12.612;2023-04-01T01:12:57;98081.66;;;10.95;67.58
60061;BME280;45933;51.336;12.612;2023-04-01T01:15:28;98084.56;;;10.88;67.76
60061;BME280;45933;51.336;12.612;2023-04-01T01:18:17;98090.69;;;10.87;67.65
60061;BME280;45933;51.336;12.612;2023-04-01T01:29:29;98088.63;;;10.95;67.86
60061;BME280;45933;51.336;12.612;2023-04-01T01:32:12;98085.41;;;10.88;67.74
60061;BME280;45933;51.336;12.612;2023-04-01T01:37:45;98076.00;;;10.84;68.08
60061;BME280;45933;51.336;12.612;2023-04-01T01:40:13;98075.06;;;10.87;67.74
60061;BME280;45933;51.336;12.612;2023-04-01T01:42:44;98072.66;;;10.81;68.43
60061;BME280;45933;51.336;12.612;2023-04-01T01:45:13;98077.78;;;10.84;67.92
60061;BME280;45933;51.336;12.612;2023-04-01T01:47:41;98069.09;;;10.83;67.99
60061;BME280;45933;51.336;12.612;2023-04-01T01:50:07;98072.72;;;10.79;67.93
60061;BME280;45933;51.336;12.612;2023-04-01T01:52:33;98073.53;;;10.81;68.12
60061;BME280;45933;51.336;12.612;2023-04-01T01:54:58;98078.50;;;10.87;67.51
60061;BME280;45933;51.336;12.612;2023-04-01T01:57:31;98079.47;;;10.85;67.79
60061;BME280;45933;51.336;12.612;2023-04-01T02:00:02;98079.47;;;10.85;67.98
60061;BME280;45933;51.336;12.612;2023-04-01T02:02:31;98083.72;;;10.87;67.94
60061;BME280;45933;51.336;12.612;2023-04-01T02:04:57;98083.75;;;10.86;67.55
60061;BME280;45933;51.336;12.612;2023-04-01T02:07:31;98080.94;;;10.92;67.61
60061;BME280;45933;51.336;12.612;2023-04-01T02:09:58;98085.41;;;10.88;67.57
60061;BME280;45933;51.336;12.612;2023-04-01T02:12:24;98080.28;;;10.87;68.11
60061;BME280;45933;51.336;12.612;2023-04-01T02:15:00;98077.66;;;10.87;67.92
60061;BME280;45933;51.336;12.612;2023-04-01T02:17:32;98081.22;;;10.84;68.08
60061;BME280;45933;51.336;12.612;2023-04-01T02:20:08;98084.69;;;10.85;67.99
60061;BME280;45933;51.336;12.612;2023-04-01T02:23:14;98080.63;;;10.99;67.33
60061;BME280;45933;51.336;12.612;2023-04-01T02:25:40;98081.97;;;10.88;67.35
60061;BME280;45933;51.336;12.612;2023-04-01T02:28:08;98080.19;;;10.88;67.24
60061;BME280;45933;51.336;12.612;2023-04-01T02:30:35;98081.34;;;10.81;67.56
60061;BME280;45933;51.336;12.612;2023-04-01T02:33:03;98082.06;;;10.85;67.58
60061;BME280;45933;51.336;12.612;2023-04-01T02:35:29;98079.47;;;10.85;67.14
60061;BME280;45933;51.336;12.612;2023-04-01T02:37:55;98078.44;;;10.89;67.09
60061;BME280;45933;51.336;12.612;2023-04-01T02:40:21;98082.81;;;10.88;67.33
60061;BME280;45933;51.336;12.612;2023-04-01T02:42:46;98088.13;;;10.85;67.51
60061;BME280;45933;51.336;12.612;2023-04-01T02:45:13;98088.97;;;10.86;67.33
60061;BME280;45933;51.336;12.612;2023-04-01T02:47:39;98094.31;;;10.83;67.24
60061;BME280;45933;51.336;12.612;2023-04-01T02:50:05;98094.19;;;10.86;67.27
60061;BME280;45933;51.336;12.612;2023-04-01T02:52:31;98086.34;;;10.87;67.30
60061;BME280;45933;51.336;12.612;2023-04-01T02:54:56;98096.75;;;10.87;67.30
60061;BME280;45933;51.336;12.612;2023-04-01T02:57:23;98095.91;;;10.87;66.98
60061;BME280;45933;51.336;12.612;2023-04-01T02:59:48;98095.28;;;10.80;67.34
60061;BME280;45933;51.336;12.612;2023-04-01T03:02:14;98090.81;;;10.84;67.19
60061;BME280;45933;51.336;12.612;2023-04-01T03:04:41;98089.88;;;10.85;67.11
60061;BME280;45933;51.336;12.612;2023-04-01T03:07:06;98095.06;;;10.86;67.10
60061;BME280;45933;51.336;12.612;2023-04-01T03:09:31;98086.25;;;10.89;66.98
60061;BME280;45933;51.336;12.612;2023-04-01T03:11:57;98093.25;;;10.88;67.20
60061;BME280;45933;51.336;12.612;2023-04-01T03:14:22;98090.63;;;10.88;66.88
60061;BME280;45933;51.336;12.612;2023-04-01T03:16:47;98093.34;;;10.85;66.81
60061;BME280;45933;51.336;12.612;2023-04-01T03:19:13;98092.47;;;10.86;66.65
60061;BME280;45933;51.336;12.612;2023-04-01T03:21:38;98108.03;;;10.88;66.69
60061;BME280;45933;51.336;12.612;2023-04-01T03:24:04;98090.81;;;10.84;66.90
60061;BME280;45933;51.336;12.612;2023-04-01T03:26:31;98095.06;;;10.86;66.96
60061;BME280;45933;51.336;12.612;2023-04-01T03:28:56;98089.63;;;10.92;66.28
60061;BME280;45933;51.336;12.612;2023-04-01T03:31:22;98084.56;;;10.88;66.87
60061;BME280;45933;51.336;12.612;2023-04-01T03:33:47;98096.69;;;10.89;66.68
60061;BME280;45933;51.336;12.612;2023-04-01T03:36:12;98098.38;;;10.90;66.55
60061;BME280;45933;51.336;12.612;2023-04-01T03:38:39;98096.75;;;10.87;66.32
60061;BME280;45933;51.336;12.612;2023-04-01T03:41:04;98099.53;;;10.83;66.93
60061;BME280;45933;51.336;12.612;2023-04-01T03:43:30;98099.47;;;10.84;66.56
60061;BME280;45933;51.336;12.612;2023-04-01T03:45:55;98104.63;;;10.86;66.48
60061;BME280;45933;51.336;12.612;2023-04-01T03:48:22;98101.22;;;10.84;66.40
60061;BME280;45933;51.336;12.612;2023-04-01T03:50:48;98104.63;;;10.86;66.24
60061;BME280;45933;51.336;12.612;2023-04-01T03:53:13;98108.28;;;10.82;66.60
60061;BME280;45933;51.336;12.612;2023-04-01T03:55:39;98106.38;;;10.85;66.35
60061;BME280;45933;51.336;12.612;2023-04-01T03:58:06;98104.75;;;10.83;66.58
60061;BME280;45933;51.336;12.612;2023-04-01T04:00:31;98114.25;;;10.84;66.39
60061;BME280;45933;51.336;12.612;2023-04-01T04:02:57;98113.34;;;10.85;66.37
60061;BME280;45933;51.336;12.612;2023-04-01T04:05:24;98116.19;;;10.79;66.46
60061;BME280;45933;51.336;12.612;2023-04-01T04:07:49;98123.91;;;10.82;66.42
60061;BME280;45933;51.336;12.612;2023-04-01T04:10:15;98117.03;;;10.79;66.31
60061;BME280;45933;51.336;12.612;2023-04-01T04:12:40;98124.09;;;10.76;66.80
60061;BME280;45933;51.336;12.612;2023-04-01T04:15:07;98122.25;;;10.79;66.34
60061;BME280;45933;51.336;12.612;2023-04-01T04:17:32;98112.84;;;10.75;66.22
60061;BME280;45933;51.336;12.612;2023-04-01T04:19:57;98117.16;;;10.76;66.63
60061;BME280;45933;51.336;12.612;2023-04-01T04:22:23;98119.78;;;10.76;66.60
60061;BME280;45933;51.336;12.612;2023-04-01T04:24:48;98128.47;;;10.75;66.52
60061;BME280;45933;51.336;12.612;2023-04-01T04:27:13;98130.19;;;10.76;66.25
60061;BME280;45933;51.336;12.612;2023-04-01T04:29:39;98127.78;;;10.70;66.57
60061;BME280;45933;51.336;12.612;2023-04-01T04:32:04;98139.75;;;10.76;66.13
60061;BME280;45933;51.336;12.612;2023-04-01T04:34:31;98137.28;;;10.72;66.28
60061;BME280;45933;51.336;12.612;2023-04-01T04:36:56;98139.38;;;10.63;66.75
60061;BME280;45933;51.336;12.612;2023-04-01T04:39:21;98139.13;;;10.69;66.76
60061;BME280;45933;51.336;12.612;2023-04-01T04:41:46;98135.50;;;10.73;66.38
60061;BME280;45933;51.336;12.612;2023-04-01T04:44:12;98147.78;;;10.69;66.36
60061;BME280;45933;51.336;12.612;2023-04-01T04:46:37;98137.22;;;10.74;66.49
60061;BME280;45933;51.336;12.612;2023-04-01T04:49:04;98144.25;;;10.72;66.60
60061;BME280;45933;51.336;12.612;2023-04-01T04:51:30;98143.44;;;10.70;66.57
60061;BME280;45933;51.336;12.612;2023-04-01T04:53:55;98150.25;;;10.74;66.34
60061;BME280;45933;51.336;12.612;2023-04-01T04:56:22;98149.38;;;10.73;66.23
60061;BME280;45933;51.336;12.612;2023-04-01T04:58:49;98152.06;;;10.72;66.42
60061;BME280;45933;51.336;12.612;2023-04-01T05:01:16;98140.72;;;10.73;66.21
60061;BME280;45933;51.336;12.612;2023-04-01T05:03:41;98146.00;;;10.71;66.31
60061;BME280;45933;51.336;12.612;2023-04-01T05:06:08;98151.25;;;10.70;66.55
60061;BME280;45933;51.336;12.612;2023-04-01T05:08:34;98154.66;;;10.72;66.29
60061;BME280;45933;51.336;12.612;2023-04-01T05:11:00;98153.00;;;10.69;66.46
60061;BME280;45933;51.336;12.612;2023-04-01T05:13:26;98153.84;;;10.70;66.47
60061;BME280;45933;51.336;12.612;2023-04-01T05:15:51;98156.44;;;10.71;66.67
60061;BME280;45933;51.336;12.612;2023-04-01T05:18:16;98161.81;;;10.67;66.73
60061;BME280;45933;51.336;12.612;2023-04-01T05:20:49;98157.28;;;10.72;66.51
60061;BME280;45933;51.336;12.612;2023-04-01T05:23:15;98162.56;;;10.70;66.41
60061;BME280;45933;51.336;12.612;2023-04-01T05:25:40;98168.59;;;10.71;66.40
60061;BME280;45933;51.336;12.612;2023-04-01T05:28:06;98163.59;;;10.65;66.82
60061;BME280;45933;51.336;12.612;2023-04-01T05:30:31;98161.72;;;10.68;66.60
60061;BME280;45933;51.336;12.612;2023-04-01T05:32:56;98162.59;;;10.69;66.55
60061;BME280;45933;51.336;12.612;2023-04-01T05:35:21;98165.34;;;10.64;66.82
60061;BME280;45933;51.336;12.612;2023-04-01T05:37:48;98169.63;;;10.67;66.86
60061;BME280;45933;51.336;12.612;2023-04-01T05:40:13;98160.81;;;10.69;66.94
60061;BME280;45933;51.336;12.612;2023-04-01T05:42:38;98165.09;;;10.72;66.71
60061;BME280;45933;51.336;12.612;2023-04-01T05:45:04;98171.94;;;10.74;66.35
60061;BME280;45933;51.336;12.612;2023-04-01T05:47:30;98164.19;;;10.73;66.63
60061;BME280;45933;51.336;12.612;2023-04-01T05:49:55;98171.09;;;10.74;66.54
60061;BME280;45933;51.336;12.612;2023-04-01T05:52:20;98174.50;;;10.76;66.26
60061;BME280;45933;51.336;12.612;2023-04-01T05:54:46;98175.22;;;10.80;66.25
60061;BME280;45933;51.336;12.612;2023-04-01T05:57:11;98176.06;;;10.80;66.47
60061;BME280;45933;51.336;12.612;2023-04-01T05:59:36;98176.03;;;10.82;66.29
60061;BME280;45933;51.336;12.612;2023-04-01T06:02:02;98165.47;;;10.85;66.27
60061;BME280;45933;51.336;12.612;2023-04-01T06:04:32;98178.50;;;10.85;66.27
60061;BME280;45933;51.336;12.612;2023-04-01T06:06:59;98174.94;;;10.87;66.31
60061;BME280;45933;51.336;12.612;2023-04-01T06:09:28;98176.56;;;10.90;66.43
60061;BME280;45933;51.336;12.612;2023-04-01T06:17:51;98180.31;;;11.06;65.44
60061;BME280;45933;51.336;12.612;2023-04-01T06:20:27;98188.25;;;11.03;66.13
60061;BME280;45933;51.336;12.612;2023-04-01T06:23:50;98190.41;;;11.15;65.70
60061;BME280;45933;51.336;12.612;2023-04-01T06:34:37;98191.00;;;11.22;65.30
60061;BME280;45933;51.336;12.612;2023-04-01T06:37:27;98198.56;;;11.30;65.46
60061;BME280;45933;51.336;12.612;2023-04-01T06:40:12;98190.75;;;11.28;65.35
60061;BME280;45933;51.336;12.612;2023-04-01T06:42:45;98199.47;;;11.29;65.48
60061;BME280;45933;51.336;12.612;2023-04-01T06:46:18;98191.25;;;11.38;65.25
60061;BME280;45933;51.336;12.612;2023-04-01T06:48:28;98203.53;;;11.36;65.51
60061;BME280;45933;51.336;12.612;2023-04-01T06:53:55;98196.22;;;11.45;65.11
60061;BME280;45933;51.336;12.612;2023-04-01T06:56:28;98198.81;;;11.45;65.45
60061;BME280;45933;51.336;12.612;2023-04-01T06:59:03;98196.03;;;11.50;65.85
60061;BME280;45933;51.336;12.612;2023-04-01T07:01:37;98198.50;;;11.53;65.37
60061;BME280;45933;51.336;12.612;2023-04-01T07:04:11;98204.31;;;11.60;65.63
60061;BME280;45933;51.336;12.612;2023-04-01T07:06:45;98208.41;;;11.67;65.35
60061;BME280;45933;51.336;12.612;2023-04-01T07:09:16;98199.66;;;11.68;65.26
60061;BME280;45933;51.336;12.612;2023-04-01T07:11:43;98205.63;;;11.71;65.42
60061;BME280;45933;51.336;12.612;2023-04-01T07:14:36;98208.59;;;11.84;65.07
60061;BME280;45933;51.336;12.612;2023-04-01T07:17:19;98212.13;;;11.83;65.18
60061;BME280;45933;51.336;12.612;2023-04-01T07:19:54;98216.97;;;11.92;64.97
60061;BME280;45933;51.336;12.612;2023-04-01T07:22:33;98212.44;;;11.97;64.78
60061;BME280;45933;51.336;12.612;2023-04-01T07:25:12;98211.44;;;12.00;64.71
60061;BME280;45933;51.336;12.612;2023-04-01T07:27:38;98207.97;;;11.99;64.71
60061;BME280;45933;51.336;12.612;2023-04-01T07:30:06;98213.88;;;12.04;64.31
60061;BME280;45933;51.336;12.612;2023-04-01T07:33:28;98221.06;;;12.20;64.14
60061;BME280;45933;51.336;12.612;2023-04-01T07:36:12;98220.34;;;12.16;64.19
60061;BME280;45933;51.336;12.612;2023-04-01T07:41:52;98233.88;;;12.26;63.47
60061;BME280;45933;51.336;12.612;2023-04-01T07:44:28;98227.78;;;12.25;62.90
60061;BME280;45933;51.336;12.612;2023-04-01T07:49:55;98233.59;;;12.32;62.81
60061;BME280;45933;51.336;12.612;2023-04-01T07:52:45;98245.63;;;12.36;62.74
60061;BME280;45933;51.336;12.612;2023-04-01T07:58:03;98245.56;;;12.38;62.21
60061;BME280;45933;51.336;12.612;2023-04-01T08:00:59;98253.22;;;12.42;62.77
60061;BME280;45933;51.336;12.612;2023-04-01T08:08:44;98257.13;;;12.32;61.09
60061;BME280;45933;51.336;12.612;2023-04-01T08:11:34;98257.47;;;12.45;61.13
60061;BME280;45933;51.336;12.612;2023-04-01T08:17:01;98256.28;;;12.52;61.68
60061;BME280;45933;51.336;12.612;2023-04-01T08:21:58;98259.22;;;12.44;60.88
60061;BME280;45933;51.336;12.612;2023-04-01T08:24:37;98269.47;;;12.49;61.67
60061;BME280;45933;51.336;12.612;2023-04-01T08:35:34;98261.97;;;12.62;61.14
60061;BME280;45933;51.336;12.612;2023-04-01T08:38:13;98269.75;;;12.63;61.42
60061;BME280;45933;51.336;12.612;2023-04-01T08:40:57;98259.75;;;12.73;61.06
60061;BME280;45933;51.336;12.612;2023-04-01T08:49:46;98266.41;;;12.80;60.06
60061;BME280;45933;51.336;12.612;2023-04-01T08:52:18;98273.59;;;12.75;59.52
60061;BME280;45933;51.336;12.612;2023-04-01T08:55:27;98267.84;;;12.87;60.24
60061;BME280;45933;51.336;12.612;2023-04-01T09:06:37;98271.16;;;12.91;60.79
60061;BME280;45933;51.336;12.612;2023-04-01T09:09:30;98273.50;;;12.97;60.35
60061;BME280;45933;51.336;12.612;2023-04-01T09:29:05;98268.13;;;13.20;59.60
60061;BME280;45933;51.336;12.612;2023-04-01T09:34:36;98272.38;;;13.23;59.43
60061;BME280;45933;51.336;12.612;2023-04-01T10:00:22;98282.84;;;13.79;58.17
60061;BME280;45933;51.336;12.612;2023-04-01T10:03:23;98287.31;;;13.77;56.70
60061;BME280;45933;51.336;12.612;2023-04-01T10:06:17;98281.16;;;13.78;56.36
60061;BME280;45933;51.336;12.612;2023-04-01T10:09:11;98289.22;;;13.74;58.07
60061;BME280;45933;51.336;12.612;2023-04-01T10:17:34;98286.81;;;13.88;56.46
60061;BME280;45933;51.336;12.612;2023-04-01T10:23:17;98285.13;;;13.87;56.88
60061;BME280;45933;51.336;12.612;2023-04-01T10:26:33;98287.34;;;14.13;57.37
60061;BME280;45933;51.336;12.612;2023-04-01T10:44:09;98284.38;;;14.02;58.00
60061;BME280;45933;51.336;12.612;2023-04-01T10:47:05;98286.53;;;13.94;58.11
60061;BME280;45933;51.336;12.612;2023-04-01T10:52:40;98283.34;;;13.88;58.59
60061;BME280;45933;51.336;12.612;2023-04-01T10:55:37;98280.22;;;13.98;59.40
60061;BME280;45933;51.336;12.612;2023-04-01T10:58:45;98288.31;;;13.94;59.65
60061;BME280;45933;51.336;12.612;2023-04-01T11:07:37;98286.75;;;13.90;58.62
60061;BME280;45933;51.336;12.612;2023-04-01T11:21:59;98286.88;;;13.86;58.81
60061;BME280;45933;51.336;12.612;2023-04-01T11:24:50;98287.44;;;13.93;58.70
60061;BME280;45933;51.336;12.612;2023-04-01T11:27:30;98284.88;;;13.92;58.27
60061;BME280;45933;51.336;12.612;2023-04-01T11:33:04;98289.09;;;14.13;58.88
60061;BME280;45933;51.336;12.612;2023-04-01T11:35:39;98292.41;;;14.17;57.74
60061;BME280;45933;51.336;12.612;2023-04-01T11:41:22;98286.47;;;14.49;59.02
60061;BME280;45933;51.336;12.612;2023-04-01T11:44:16;98282.22;;;14.64;55.64
60061;BME280;45933;51.336;12.612;2023-04-01T11:50:17;98280.81;;;15.09;56.53
60061;BME280;45933;51.336;12.612;2023-04-01T11:52:33;98286.47;;;15.17;54.86
60061;BME280;45933;51.336;12.612;2023-04-01T11:57:43;98296.84;;;15.20;53.81
60061;BME280;45933;51.336;12.612;2023-04-01T12:00:29;98298.75;;;15.16;53.24
60061;BME280;45933;51.336;12.612;2023-04-01T12:03:21;98289.19;;;15.15;53.43
60061;BME280;45933;51.336;12.612;2023-04-01T12:11:39;98296.00;;;15.02;54.58
60061;BME280;45933;51.336;12.612;2023-04-01T12:14:32;98300.50;;;15.00;54.19
60061;BME280;45933;51.336;12.612;2023-04-01T12:17:27;98312.56;;;14.87;54.37
60061;BME280;45933;51.336;12.612;2023-04-01T12:23:37;98319.47;;;14.71;54.36
60061;BME280;45933;51.336;12.612;2023-04-01T12:26:06;98329.97;;;14.71;54.99
60061;BME280;45933;51.336;12.612;2023-04-01T12:32:03;98324.19;;;14.64;55.63
60061;BME280;45933;51.336;12.612;2023-04-01T12:37:29;98329.88;;;14.55;57.06
60061;BME280;45933;51.336;12.612;2023-04-01T12:43:14;98334.78;;;14.44;57.03
60061;BME280;45933;51.336;12.612;2023-04-01T12:46:08;98334.09;;;14.40;56.27
60061;BME280;45933;51.336;12.612;2023-04-01T12:48:58;98334.38;;;14.34;56.51
60061;BME280;45933;51.336;12.612;2023-04-01T13:14:22;98348.69;;;14.46;56.72
60061;BME280;45933;51.336;12.612;2023-04-01T13:17:02;98342.38;;;14.50;55.55
60061;BME280;45933;51.336;12.612;2023-04-01T13:19:47;98348.72;;;14.63;56.09
60061;BME280;45933;51.336;12.612;2023-04-01T13:22:52;98352.41;;;14.76;56.02
60061;BME280;45933;51.336;12.612;2023-04-01T13:28:23;98351.72;;;14.90;54.24
60061;BME280;45933;51.336;12.612;2023-04-01T13:31:43;98351.38;;;14.98;52.98
60061;BME280;45933;51.336;12.612;2023-04-01T13:36:54;98352.31;;;15.12;54.77
60061;BME280;45933;51.336;12.612;2023-04-01T13:39:33;98358.59;;;15.10;52.80
60061;BME280;45933;51.336;12.612;2023-04-01T13:42:28;98349.69;;;15.12;52.90
60061;BME280;45933;51.336;12.612;2023-04-01T13:45:15;98360.19;;;15.12;52.06
60061;BME280;45933;51.336;12.612;2023-04-01T14:02:33;98373.56;;;14.73;54.63
60061;BME280;45933;51.336;12.612;2023-04-01T14:11:47;98369.47;;;14.68;53.93
60061;BME280;45933;51.336;12.612;2023-04-01T14:17:02;98369.84;;;14.60;52.78
60061;BME280;45933;51.336;12.612;2023-04-01T14:19:53;98371.25;;;14.67;53.50
60061;BME280;45933;51.336;12.612;2023-04-01T14:22:38;98381.25;;;14.59;53.41
60061;BME280;45933;51.336;12.612;2023-04-01T14:25:32;98381.97;;;14.62;54.35
60061;BME280;45933;51.336;12.612;2023-04-01T14:28:27;98384.25;;;14.51;53.66
60061;BME280;45933;51.336;12.612;2023-04-01T14:37:03;98389.41;;;14.34;55.42
60061;BME280;45933;51.336;12.612;2023-04-01T14:39:43;98392.19;;;14.31;54.89
60061;BME280;45933;51.336;12.612;2023-04-01T14:42:41;98393.81;;;14.33;55.25
60061;BME280;45933;51.336;12.612;2023-04-01T14:45:28;98388.09;;;14.25;56.03
60061;BME280;45933;51.336;12.612;2023-04-01T14:48:03;98387.69;;;14.16;56.11
60061;BME280;45933;51.336;12.612;2023-04-01T14:50:42;98398.78;;;14.21;55.83
60061;BME280;45933;51.336;12.612;2023-04-01T14:53:26;98402.63;;;14.13;56.14
60061;BME280;45933;51.336;12.612;2023-04-01T14:55:56;98396.75;;;14.08;57.08
60061;BME280;45933;51.336;12.612;2023-04-01T14:58:40;98403.19;;;14.01;57.20
60061;BME280;45933;51.336;12.612;2023-04-01T15:01:09;98398.94;;;13.99;57.37
60061;BME280;45933;51.336;12.612;2023-04-01T15:04:09;98402.84;;;14.09;57.71
60061;BME280;45933;51.336;12.612;2023-04-01T15:07:00;98405.38;;;13.92;58.56
60061;BME280;45933;51.336;12.612;2023-04-01T15:09:52;98411.03;;;14.01;57.45
60061;BME280;45933;51.336;12.612;2023-04-01T15:12:57;98411.97;;;14.00;58.29
60061;BME280;45933;51.336;12.612;2023-04-01T15:18:23;98417.13;;;13.83;58.77
60061;BME280;45933;51.336;12.612;2023-04-01T15:24:00;98423.22;;;13.83;58.55
60061;BME280;45933;51.336;12.612;2023-04-01T15:29:46;98427.53;;;13.84;58.72
60061;BME280;45933;51.336;12.612;2023-04-01T15:35:21;98429.66;;;13.76;59.89
60061;BME280;45933;51.336;12.612;2023-04-01T15:37:56;98429.59;;;13.78;59.78
60061;BME280;45933;51.336;12.612;2023-04-01T15:40:40;98432.13;;;13.79;59.50
60061;BME280;45933;51.336;12.612;2023-04-01T15:43:36;98439.00;;;13.82;58.80
60061;BME280;45933;51.336;12.612;2023-04-01T15:46:31;98442.41;;;13.84;59.59
60061;BME280;45933;51.336;12.612;2023-04-01T15:52:19;98440.25;;;13.73;60.35
60061;BME280;45933;51.336;12.612;2023-04-01T16:00:33;98444.56;;;13.74;60.49
60061;BME280;45933;51.336;12.612;2023-04-01T16:03:18;98444.97;;;13.65;61.08
60061;BME280;45933;51.336;12.612;2023-04-01T16:09:02;98456.25;;;13.67;61.06
60061;BME280;45933;51.336;12.612;2023-04-01T16:11:53;98458.94;;;13.66;60.68
60061;BME280;45933;51.336;12.612;2023-04-01T16:14:38;98461.09;;;13.56;61.08
60061;BME280;45933;51.336;12.612;2023-04-01T16:20:18;98461.75;;;13.61;60.32
60061;BME280;45933;51.336;12.612;2023-04-01T16:22:57;98468.03;;;13.57;60.60
60061;BME280;45933;51.336;12.612;2023-04-01T16:25:36;98470.78;;;13.54;60.52
60061;BME280;45933;51.336;12.612;2023-04-01T16:30:59;98471.03;;;13.48;60.86
60061;BME280;45933;51.336;12.612;2023-04-01T16:33:49;98479.75;;;13.48;61.07
60061;BME280;45933;51.336;12.612;2023-04-01T16:36:25;98482.69;;;13.41;61.40
60061;BME280;45933;51.336;12.612;2023-04-01T16:39:11;98483.56;;;13.41;61.13
60061;BME280;45933;51.336;12.612;2023-04-01T16:44:48;98492.63;;;13.32;61.23
60061;BME280;45933;51.336;12.612;2023-04-01T16:47:34;98494.59;;;13.27;61.31
60061;BME280;45933;51.336;12.612;2023-04-01T16:50:23;98493.81;;;13.25;61.21
60061;BME280;45933;51.336;12.612;2023-04-01T16:53:00;98495.06;;;13.15;61.69
60061;BME280;45933;51.336;12.612;2023-04-01T16:58:32;98508.44;;;13.07;61.21
60061;BME280;45933;51.336;12.612;2023-04-01T17:01:03;98508.53;;;13.06;61.04
60061;BME280;45933;51.336;12.612;2023-04-01T17:03:37;98517.22;;;13.06;61.62
60061;BME280;45933;51.336;12.612;2023-04-01T17:11:55;98528.75;;;13.02;61.52
60061;BME280;45933;51.336;12.612;2023-04-01T17:14:31;98533.09;;;13.02;62.01
60061;BME280;45933;51.336;12.612;2023-04-01T17:17:17;98537.44;;;13.03;61.90
60061;BME280;45933;51.336;12.612;2023-04-01T17:20:12;98533.84;;;13.05;62.36
60061;BME280;45933;51.336;12.612;2023-04-01T17:23:04;98550.44;;;13.04;61.82
60061;BME280;45933;51.336;12.612;2023-04-01T17:31:10;98545.72;;;12.92;61.86
60061;BME280;45933;51.336;12.612;2023-04-01T17:39:46;98560.84;;;12.84;62.48
60061;BME280;45933;51.336;12.612;2023-04-01T17:42:37;98562.53;;;12.85;62.35
60061;BME280;45933;51.336;12.612;2023-04-01T17:45:28;98568.56;;;12.87;62.22
60061;BME280;45933;51.336;12.612;2023-04-01T17:48:03;98572.38;;;12.78;62.90
60061;BME280;45933;51.336;12.612;2023-04-01T17:53:33;98589.00;;;12.77;62.71
60061;BME280;45933;51.336;12.612;2023-04-01T17:56:25;98586.63;;;12.71;63.32
60061;BME280;45933;51.336;12.612;2023-04-01T17:59:34;98591.53;;;12.79;62.90
60061;BME280;45933;51.336;12.612;2023-04-01T18:02:11;98604.06;;;12.71;63.38
60061;BME280;45933;51.336;12.612;2023-04-01T18:05:13;98598.63;;;12.75;62.99
60061;BME280;45933;51.336;12.612;2023-04-01T18:10:40;98600.88;;;12.63;63.55
60061;BME280;45933;51.336;12.612;2023-04-01T18:13:35;98607.81;;;12.64;63.62
60061;BME280;45933;51.336;12.612;2023-04-01T18:19:01;98618.31;;;12.62;63.56
60061;BME280;45933;51.336;12.612;2023-04-01T18:21:43;98616.63;;;12.61;63.73
60061;BME280;45933;51.336;12.612;2023-04-01T18:27:15;98626.56;;;12.51;64.07
60061;BME280;45933;51.336;12.612;2023-04-01T18:29:50;98630.81;;;12.54;63.81
60061;BME280;45933;51.336;12.612;2023-04-01T18:32:42;98635.03;;;12.58;63.42
60061;BME280;45933;51.336;12.612;2023-04-01T18:37:47;98647.69;;;12.45;64.12
60061;BME280;45933;51.336;12.612;2023-04-01T18:40:23;98652.06;;;12.45;64.16
60061;BME280;45933;51.336;12.612;2023-04-01T18:43:12;98655.41;;;12.48;63.61
60061;BME280;45933;51.336;12.612;2023-04-01T18:45:46;98657.47;;;12.40;63.87
60061;BME280;45933;51.336;12.612;2023-04-01T18:51:17;98670.69;;;12.36;64.10
60061;BME280;45933;51.336;12.612;2023-04-01T18:54:01;98674.16;;;12.36;63.50